Time;durP1;ratioP1;P1;durP2;ratioP2;P2;SDS_P1;SDS_P2;PMS_P1;PMS_P2;Temp;Humidity;BMP_temperature;BMP_pressure;BME280_temperature;BME280_humidity;BME280_pressure;Samples;Min_cycle;Max_cycle;Signal;HPM_P1;HPM_P2
2023/07/15 00:00:58;;;;;;;8.77;2.80;;;;;;;19.37;100.00;99424.41;4998081;28;20230;-67
2023/07/15 00:03:23;;;;;;;20.13;10.67;;;;;;;19.41;100.00;99422.31;4993034;28;20190;-67
2023/07/15 00:05:49;;;;;;;11.43;5.13;;;;;;;19.30;100.00;99426.00;5000300;28;20201;-69
2023/07/15 00:08:15;;;;;;;12.50;3.23;;;;;;;19.44;100.00;99420.22;4991326;28;20183;-67
2023/07/15 00:10:42;;;;;;;5.13;3.10;;;;;;;19.45;100.00;99415.78;4989843;28;20441;-66
2023/07/15 00:13:13;;;;;;;8.80;3.10;;;;;;;19.43;100.00;99413.34;5009433;28;20183;-67
2023/07/15 00:15:40;;;;;;;12.03;3.20;;;;;;;19.37;100.00;99421.00;5001035;28;20582;-69
2023/07/15 00:18:06;;;;;;;7.57;3.00;;;;;;;19.39;100.00;99414.66;4999013;28;20330;-67
2023/07/15 00:20:31;;;;;;;5.77;2.83;;;;;;;19.42;100.00;99416.94;4992063;28;20347;-68
2023/07/15 00:22:56;;;;;;;8.23;3.13;;;;;;;19.40;100.00;99421.50;5004792;28;20206;-66
2023/07/15 00:25:22;;;;;;;9.77;3.50;;;;;;;19.21;100.00;99417.34;5005331;28;20183;-67
2023/07/15 00:27:48;;;;;;;7.30;3.13;;;;;;;19.22;100.00;99428.59;5006511;28;20222;-62
2023/07/15 00:30:15;;;;;;;7.67;3.17;;;;;;;19.17;100.00;99422.06;4999389;28;20217;-63
2023/07/15 00:32:42;;;;;;;8.47;3.00;;;;;;;19.14;100.00;99417.16;4998695;28;20199;-62
2023/07/15 00:35:19;;;;;;;6.63;3.33;;;;;;;19.09;100.00;99411.59;4987787;28;20194;-60
2023/07/15 00:37:45;;;;;;;8.90;3.57;;;;;;;18.95;100.00;99410.41;4992413;28;20210;-62
2023/07/15 00:40:11;;;;;;;7.90;3.50;;;;;;;18.93;100.00;99414.09;4983086;28;20207;-61
2023/07/15 00:43:07;;;;;;;9.40;3.27;;;;;;;18.85;100.00;99409.66;5006185;28;20183;-61
2023/07/15 00:45:32;;;;;;;10.07;3.47;;;;;;;18.96;100.00;99412.00;5008510;28;20187;-62
2023/07/15 00:48:16;;;;;;;5.30;3.07;;;;;;;18.84;100.00;99408.00;5006972;28;20198;-62
2023/07/15 00:50:42;;;;;;;6.63;3.43;;;;;;;18.96;100.00;99419.03;4986216;28;20229;-63
2023/07/15 00:53:09;;;;;;;10.87;3.63;;;;;;;18.89;100.00;99418.81;5006643;28;20178;-63
2023/07/15 00:55:34;;;;;;;6.60;3.70;;;;;;;18.92;100.00;99420.31;5008571;28;20189;-63
2023/07/15 00:57:59;;;;;;;7.13;3.50;;;;;;;18.88;100.00;99417.97;5007872;28;20171;-63
2023/07/15 01:00:25;;;;;;;11.33;3.57;;;;;;;18.68;100.00;99414.75;5002712;28;20674;-62
2023/07/15 01:02:51;;;;;;;5.57;2.90;;;;;;;18.73;100.00;99419.53;5009639;28;20199;-63
2023/07/15 01:05:17;;;;;;;7.80;3.23;;;;;;;18.75;100.00;99430.59;4991663;28;20221;-61
2023/07/15 01:07:42;;;;;;;5.57;3.40;;;;;;;18.70;100.00;99423.25;5003733;28;20261;-62
2023/07/15 01:10:07;;;;;;;9.67;3.23;;;;;;;18.67;100.00;99427.94;4981470;28;20171;-63
2023/07/15 01:12:33;;;;;;;8.63;3.50;;;;;;;18.58;100.00;99419.25;5006637;28;20179;-63
2023/07/15 01:14:58;;;;;;;4.60;2.77;;;;;;;18.58;100.00;99429.69;5004759;28;20627;-62
2023/07/15 01:17:24;;;;;;;5.60;3.53;;;;;;;18.63;100.00;99419.63;4991950;28;20195;-62
2023/07/15 01:19:50;;;;;;;7.47;3.40;;;;;;;18.59;100.00;99407.06;4991700;28;20175;-60
2023/07/15 01:22:16;;;;;;;4.03;2.90;;;;;;;18.64;100.00;99416.06;4996900;28;20222;-62
2023/07/15 01:24:41;;;;;;;4.70;2.97;;;;;;;18.52;100.00;99407.66;4991108;28;20229;-63
2023/07/15 01:27:08;;;;;;;8.80;3.40;;;;;;;18.49;100.00;99402.78;4997377;28;20270;-61
2023/07/15 01:29:33;;;;;;;4.90;3.10;;;;;;;18.53;100.00;99411.91;5008371;28;20229;-61
2023/07/15 01:31:58;;;;;;;6.30;3.47;;;;;;;18.48;100.00;99414.16;5015752;28;20335;-61
2023/07/15 01:34:24;;;;;;;10.00;3.77;;;;;;;18.38;100.00;99416.84;5009698;28;20209;-62
2023/07/15 01:36:50;;;;;;;6.37;3.60;;;;;;;18.38;100.00;99409.03;5009235;28;20238;-62
2023/07/15 01:39:16;;;;;;;8.47;4.10;;;;;;;18.36;100.00;99410.16;5009433;28;20512;-63
2023/07/15 01:41:42;;;;;;;12.30;4.57;;;;;;;18.28;100.00;99403.06;5013286;28;20229;-61
2023/07/15 01:44:07;;;;;;;12.27;4.17;;;;;;;18.26;100.00;99405.03;5008617;28;20186;-63
2023/07/15 01:46:36;;;;;;;14.63;4.17;;;;;;;18.20;100.00;99406.44;5009572;28;20552;-63
2023/07/15 01:49:03;;;;;;;7.40;3.30;;;;;;;18.22;100.00;99412.31;5010335;28;20631;-63
2023/07/15 01:51:29;;;;;;;5.70;3.20;;;;;;;18.23;100.00;99416.56;5002622;28;20233;-62
2023/07/15 01:53:54;;;;;;;6.43;3.23;;;;;;;18.21;100.00;99412.47;5013971;28;20664;-61
2023/07/15 01:56:21;;;;;;;5.70;2.97;;;;;;;18.17;100.00;99403.31;5006716;28;20623;-61
2023/07/15 01:58:46;;;;;;;8.80;3.80;;;;;;;18.15;100.00;99398.25;5009863;28;20229;-61
2023/07/15 02:01:12;;;;;;;9.37;3.90;;;;;;;18.18;100.00;99400.56;5009255;28;20229;-62
2023/07/15 02:03:37;;;;;;;8.97;3.40;;;;;;;18.09;100.00;99396.25;4998378;28;20184;-63
2023/07/15 02:06:02;;;;;;;7.90;3.83;;;;;;;18.04;100.00;99396.69;4980308;28;20195;-62
2023/07/15 02:08:28;;;;;;;6.30;3.60;;;;;;;18.00;100.00;99390.16;4999690;28;20579;-61
2023/07/15 02:10:53;;;;;;;9.70;3.60;;;;;;;17.97;100.00;99384.44;5010838;28;20257;-61
2023/07/15 02:13:18;;;;;;;7.77;3.60;;;;;;;17.94;100.00;99388.16;5021695;28;20186;-62
2023/07/15 02:15:44;;;;;;;7.33;3.60;;;;;;;17.89;100.00;99382.56;5013266;28;20183;-61
2023/07/15 02:18:09;;;;;;;8.43;3.63;;;;;;;17.91;100.00;99388.41;5013476;28;20257;-62
2023/07/15 02:20:35;;;;;;;5.63;3.40;;;;;;;17.86;100.00;99377.63;5007946;28;20234;-62
2023/07/15 02:23:00;;;;;;;6.27;3.60;;;;;;;17.82;100.00;99377.13;5019372;28;20182;-62
2023/07/15 02:25:25;;;;;;;8.70;3.77;;;;;;;17.80;100.00;99373.03;4992977;28;20198;-62
2023/07/15 02:27:51;;;;;;;4.73;3.57;;;;;;;17.73;100.00;99378.81;4994821;28;20223;-61
2023/07/15 02:30:16;;;;;;;7.03;3.70;;;;;;;17.62;100.00;99375.63;4998178;28;20193;-61
2023/07/15 02:32:42;;;;;;;5.27;3.80;;;;;;;17.65;100.00;99380.53;5008806;28;20660;-61
2023/07/15 02:35:08;;;;;;;5.93;3.27;;;;;;;17.57;100.00;99376.88;4994404;28;20183;-62
2023/07/15 02:37:35;;;;;;;7.60;3.10;;;;;;;17.54;100.00;99369.38;4994799;28;20670;-61
2023/07/15 02:40:01;;;;;;;5.90;3.30;;;;;;;17.48;100.00;99366.56;4994777;28;20203;-62
2023/07/15 02:42:26;;;;;;;4.27;3.20;;;;;;;17.47;100.00;99367.50;4983343;28;20246;-61
2023/07/15 02:44:51;;;;;;;3.27;2.97;;;;;;;17.40;100.00;99368.09;4994056;28;20190;-61
2023/07/15 02:47:17;;;;;;;6.93;3.57;;;;;;;17.27;100.00;99367.63;4993254;28;20191;-61
2023/07/15 02:49:42;;;;;;;4.67;3.03;;;;;;;17.34;100.00;99370.44;4994495;28;20181;-62
2023/07/15 02:52:08;;;;;;;7.87;3.40;;;;;;;17.32;100.00;99377.59;4985603;28;20214;-63
2023/07/15 02:54:33;;;;;;;6.77;2.90;;;;;;;17.37;100.00;99370.16;4993637;28;20179;-62
2023/07/15 02:56:59;;;;;;;6.37;3.03;;;;;;;17.31;100.00;99368.16;4994013;28;20203;-62
2023/07/15 02:59:24;;;;;;;6.30;3.10;;;;;;;17.24;100.00;99358.34;4994581;28;20643;-61
2023/07/15 03:01:49;;;;;;;5.97;3.27;;;;;;;17.24;100.00;99367.91;4961567;28;20226;-61
2023/07/15 03:04:14;;;;;;;6.17;3.63;;;;;;;17.16;100.00;99360.81;4966476;28;20180;-62
2023/07/15 03:06:41;;;;;;;9.37;3.47;;;;;;;17.13;100.00;99363.72;4974610;28;20291;-62
2023/07/15 03:09:06;;;;;;;7.23;3.40;;;;;;;17.06;100.00;99371.25;4973234;28;20180;-62
2023/07/15 03:11:32;;;;;;;11.13;3.63;;;;;;;16.97;100.00;99369.53;4987713;28;20237;-63
2023/07/15 03:13:57;;;;;;;7.10;4.10;;;;;;;16.84;100.00;99382.78;4992482;28;20186;-64
2023/07/15 03:16:23;;;;;;;8.20;4.17;;;;;;;16.87;100.00;99372.13;4984636;28;20226;-62
2023/07/15 03:18:48;;;;;;;7.47;3.77;;;;;;;16.78;100.00;99373.81;4998089;28;20242;-61
2023/07/15 03:21:13;;;;;;;5.37;3.83;;;;;;;16.73;100.00;99355.25;4992726;28;20222;-61
2023/07/15 03:23:38;;;;;;;7.73;3.90;;;;;;;16.70;100.00;99370.28;5000633;28;20191;-60
2023/07/15 03:26:04;;;;;;;8.43;3.50;;;;;;;16.66;100.00;99359.34;4994119;28;20180;-61
2023/07/15 03:28:29;;;;;;;7.67;3.47;;;;;;;16.61;100.00;99362.38;4993617;28;20231;-61
2023/07/15 03:30:54;;;;;;;10.07;4.40;;;;;;;16.66;100.00;99358.53;4963161;28;20628;-61
2023/07/15 03:33:20;;;;;;;5.00;3.90;;;;;;;16.63;100.00;99357.03;4992637;28;20184;-61
2023/07/15 03:35:45;;;;;;;8.27;3.93;;;;;;;16.61;100.00;99349.38;4993187;28;20182;-62
2023/07/15 03:38:10;;;;;;;7.57;3.93;;;;;;;16.66;100.00;99340.34;4993993;28;20658;-61
2023/07/15 03:40:35;;;;;;;7.20;3.60;;;;;;;16.53;100.00;99341.47;4988400;28;20222;-60
2023/07/15 03:43:01;;;;;;;5.80;4.37;;;;;;;16.62;100.00;99348.44;5004973;28;20186;-61
2023/07/15 03:45:27;;;;;;;10.77;3.83;;;;;;;16.69;100.00;99360.84;4994620;28;20644;-62
2023/07/15 03:47:53;;;;;;;7.50;4.07;;;;;;;16.69;100.00;99359.06;4994019;28;20197;-61
2023/07/15 03:50:18;;;;;;;10.40;3.83;;;;;;;16.68;100.00;99372.19;4987153;28;20192;-62
2023/07/15 03:52:43;;;;;;;8.10;4.07;;;;;;;16.68;100.00;99372.19;5006167;28;20188;-61
2023/07/15 03:55:09;;;;;;;5.03;3.63;;;;;;;16.60;100.00;99376.31;4991192;28;20199;-61
2023/07/15 03:57:34;;;;;;;6.77;4.20;;;;;;;16.64;100.00;99371.66;4992981;28;20235;-61
2023/07/15 03:59:59;;;;;;;6.67;4.10;;;;;;;16.56;100.00;99377.56;4991327;28;20179;-62
2023/07/15 04:02:24;;;;;;;6.90;3.70;;;;;;;16.59;100.00;99379.06;4994734;28;20227;-60
2023/07/15 04:04:50;;;;;;;5.33;4.00;;;;;;;16.57;100.00;99387.00;5004717;28;20649;-61
2023/07/15 04:07:16;;;;;;;4.93;3.40;;;;;;;16.70;100.00;99383.28;5010590;28;20183;-62
2023/07/15 04:09:41;;;;;;;7.00;3.53;;;;;;;16.70;100.00;99385.88;5011705;28;20186;-61
2023/07/15 04:12:08;;;;;;;5.80;3.60;;;;;;;16.80;100.00;99385.84;5016830;28;20225;-61
2023/07/15 04:14:33;;;;;;;5.87;3.50;;;;;;;16.84;100.00;99382.78;5010388;28;20233;-61
2023/07/15 04:16:58;;;;;;;10.37;3.63;;;;;;;16.93;100.00;99384.59;5010168;28;20199;-61
2023/07/15 04:19:24;;;;;;;10.13;3.57;;;;;;;17.04;100.00;99383.59;5011079;28;20189;-60
2023/07/15 04:21:49;;;;;;;5.80;3.63;;;;;;;17.19;100.00;99385.72;5015426;28;20284;-61
2023/07/15 04:24:14;;;;;;;6.23;3.73;;;;;;;17.27;100.00;99386.63;5011911;28;20194;-61
2023/07/15 04:26:39;;;;;;;6.13;3.83;;;;;;;17.38;100.00;99380.41;5011410;28;20186;-62
2023/07/15 04:29:06;;;;;;;5.93;3.70;;;;;;;17.43;100.00;99379.97;5008970;28;20297;-61
2023/07/15 04:31:31;;;;;;;9.80;3.73;;;;;;;17.56;100.00;99385.66;5012276;28;20261;-61
2023/07/15 04:33:56;;;;;;;7.13;4.03;;;;;;;17.68;100.00;99382.84;5014915;28;20191;-61
2023/07/15 04:36:22;;;;;;;6.67;3.83;;;;;;;17.81;100.00;99377.28;5010798;28;20706;-61
2023/07/15 04:38:47;;;;;;;6.57;3.67;;;;;;;17.87;100.00;99379.28;5008970;28;20211;-63
2023/07/15 04:41:13;;;;;;;7.33;3.70;;;;;;;17.94;100.00;99385.56;5002984;28;20237;-62
2023/07/15 04:43:38;;;;;;;8.37;3.97;;;;;;;17.98;100.00;99380.88;5017232;28;20210;-62
2023/07/15 04:46:05;;;;;;;7.00;3.53;;;;;;;18.10;100.00;99371.88;5011246;28;20186;-62
2023/07/15 04:48:30;;;;;;;6.17;3.77;;;;;;;18.23;100.00;99374.91;5009335;28;20309;-62
2023/07/15 04:50:56;;;;;;;6.80;3.60;;;;;;;18.42;100.00;99380.06;4992821;28;20305;-61
2023/07/15 04:53:22;;;;;;;6.13;3.30;;;;;;;18.47;100.00;99381.25;5017452;28;20190;-61
2023/07/15 04:55:48;;;;;;;5.50;3.57;;;;;;;18.67;100.00;99375.84;4990442;28;20183;-62
2023/07/15 04:58:15;;;;;;;6.43;3.87;;;;;;;18.83;100.00;99370.72;5005054;28;20182;-62
2023/07/15 05:00:41;;;;;;;7.87;3.67;;;;;;;18.89;100.00;99374.50;4983612;28;20254;-61
2023/07/15 05:03:06;;;;;;;6.00;3.80;;;;;;;19.02;100.00;99377.50;5002075;28;20215;-62
2023/07/15 05:05:32;;;;;;;7.03;4.30;;;;;;;19.17;100.00;99382.94;4991764;28;20191;-61
2023/07/15 05:08:09;;;;;;;7.00;4.10;;;;;;;19.12;100.00;99377.41;4991862;28;20237;-62
2023/07/15 05:10:34;;;;;;;13.03;4.10;;;;;;;19.42;100.00;99374.41;4981458;28;20235;-62
2023/07/15 05:12:59;;;;;;;7.13;3.40;;;;;;;19.57;100.00;99375.41;4990950;28;20187;-67
2023/07/15 05:15:25;;;;;;;9.70;3.83;;;;;;;19.64;100.00;99370.38;5000411;28;20328;-59
2023/07/15 05:17:50;;;;;;;10.80;4.07;;;;;;;19.64;100.00;99367.78;5002914;28;20203;-59
2023/07/15 05:20:18;;;;;;;14.30;4.17;;;;;;;19.87;100.00;99369.78;4996532;28;20682;-58
2023/07/15 05:22:43;;;;;;;7.10;3.70;;;;;;;20.01;100.00;99356.09;5004615;28;20178;-57
2023/07/15 05:25:09;;;;;;;10.83;3.70;;;;;;;20.38;100.00;99359.16;4991349;28;20262;-57
2023/07/15 05:27:34;;;;;;;10.77;4.33;;;;;;;20.58;100.00;99357.03;4990240;28;20231;-58
2023/07/15 05:30:00;;;;;;;8.43;4.50;;;;;;;20.83;100.00;99364.81;4991731;28;20192;-57
2023/07/15 05:32:25;;;;;;;6.40;4.00;;;;;;;21.07;99.00;99362.13;5009436;28;20222;-57
2023/07/15 05:34:50;;;;;;;7.73;3.90;;;;;;;21.62;96.46;99362.19;5004965;28;20193;-57
2023/07/15 05:37:15;;;;;;;9.13;3.33;;;;;;;22.03;93.80;99359.25;5003941;28;20607;-57
2023/07/15 05:39:41;;;;;;;9.10;4.10;;;;;;;22.53;90.76;99354.38;5005822;28;20210;-57
2023/07/15 05:42:06;;;;;;;12.83;4.43;;;;;;;22.77;87.46;99359.56;4994881;28;20234;-57
2023/07/15 05:44:31;;;;;;;6.77;3.87;;;;;;;22.92;87.63;99356.91;4989327;28;20192;-57
2023/07/15 05:46:56;;;;;;;9.03;3.30;;;;;;;23.33;85.15;99338.88;4995538;28;20198;-57
2023/07/15 05:49:22;;;;;;;14.60;3.73;;;;;;;23.26;84.72;99331.91;4995458;28;20598;-58
2023/07/15 05:51:47;;;;;;;6.27;3.27;;;;;;;23.20;85.74;99338.72;4998707;28;20218;-57
2023/07/15 05:54:12;;;;;;;11.57;3.93;;;;;;;23.23;86.41;99348.03;5005519;28;20573;-59
2023/07/15 05:56:38;;;;;;;7.17;3.87;;;;;;;23.34;85.45;99355.41;5007174;28;20187;-58
2023/07/15 05:59:03;;;;;;;8.00;3.73;;;;;;;23.53;84.51;99351.41;5009603;28;20186;-58
2023/07/15 06:01:28;;;;;;;7.30;3.73;;;;;;;23.85;81.20;99357.97;5006252;28;20214;-58
2023/07/15 06:03:54;;;;;;;11.67;3.80;;;;;;;23.75;81.83;99356.63;5007717;28;20211;-56
2023/07/15 06:06:19;;;;;;;7.03;3.90;;;;;;;24.00;82.04;99357.91;4998768;28;20198;-57
2023/07/15 06:08:45;;;;;;;5.17;3.23;;;;;;;24.17;79.87;99360.25;5003406;28;20185;-57
2023/07/15 06:11:11;;;;;;;4.97;3.47;;;;;;;24.51;77.00;99363.94;5013010;28;20272;-57
2023/07/15 06:13:36;;;;;;;5.13;2.87;;;;;;;24.17;76.20;99361.09;5012088;28;20179;-57
2023/07/15 06:16:01;;;;;;;6.93;3.30;;;;;;;24.24;77.99;99363.75;5009129;28;20202;-57
2023/07/15 06:18:27;;;;;;;8.33;3.80;;;;;;;24.91;73.69;99368.63;5014024;28;20186;-57
2023/07/15 06:20:52;;;;;;;4.87;3.00;;;;;;;25.16;71.68;99368.13;4995867;28;20249;-56
2023/07/15 06:23:18;;;;;;;4.50;3.13;;;;;;;25.71;66.59;99371.53;5003601;28;20260;-58
2023/07/15 06:25:43;;;;;;;5.80;2.97;;;;;;;25.46;65.95;99371.25;4994102;28;20247;-57
2023/07/15 06:28:08;;;;;;;8.48;3.25;;;;;;;25.93;64.69;99366.88;4994633;28;20674;-57
2023/07/15 06:30:34;;;;;;;6.78;3.40;;;;;;;26.73;59.67;99368.63;4988405;28;20257;-57
2023/07/15 06:32:59;;;;;;;7.60;3.00;;;;;;;26.84;57.87;99359.31;5006186;28;20183;-57
2023/07/15 06:35:24;;;;;;;7.55;3.50;;;;;;;26.82;60.26;99363.16;4994655;28;20230;-57
2023/07/15 06:37:50;;;;;;;7.40;3.28;;;;;;;28.05;55.78;99353.34;4994505;28;20196;-57
2023/07/15 06:40:16;;;;;;;4.63;2.97;;;;;;;28.42;50.53;99355.22;4985607;28;20206;-57
2023/07/15 06:42:45;;;;;;;7.63;3.42;;;;;;;29.77;44.59;99363.09;5007581;28;20183;-57
2023/07/15 06:45:11;;;;;;;7.50;3.10;;;;;;;30.87;40.40;99375.91;4993941;28;20211;-57
2023/07/15 06:47:37;;;;;;;5.85;2.67;;;;;;;31.49;39.18;99375.19;4994394;28;20686;-58
2023/07/15 06:50:02;;;;;;;8.48;2.72;;;;;;;28.94;46.34;99368.91;4993416;28;20274;-59
2023/07/15 06:52:27;;;;;;;5.18;2.75;;;;;;;29.05;46.51;99369.19;5001264;28;20210;-58
2023/07/15 06:54:52;;;;;;;10.48;3.05;;;;;;;28.36;50.13;99374.63;5006871;28;20231;-57
2023/07/15 06:57:19;;;;;;;6.50;3.10;;;;;;;27.80;53.05;99375.25;5013073;28;20539;-62
2023/07/15 06:59:44;;;;;;;9.30;3.40;;;;;;;27.50;53.72;99367.09;5009097;28;20615;-61
2023/07/15 07:02:10;;;;;;;5.03;3.15;;;;;;;27.15;57.39;99368.31;4982066;28;20218;-61
2023/07/15 07:04:35;;;;;;;7.25;3.00;;;;;;;26.87;59.35;99369.41;5005678;28;20645;-62
2023/07/15 07:07:00;;;;;;;7.55;2.92;;;;;;;26.99;59.82;99368.75;5013211;28;20214;-63
2023/07/15 07:09:26;;;;;;;8.32;3.05;;;;;;;26.85;60.62;99365.38;5012545;28;20274;-61
2023/07/15 07:11:51;;;;;;;7.70;3.30;;;;;;;27.49;57.75;99365.50;5004642;28;20273;-63
2023/07/15 07:14:16;;;;;;;4.20;3.00;;;;;;;28.39;53.47;99364.38;5013532;28;20187;-62
2023/07/15 07:16:41;;;;;;;5.63;2.67;;;;;;;29.03;49.45;99377.34;4989037;28;20257;-61
2023/07/15 07:19:07;;;;;;;5.70;2.58;;;;;;;29.95;46.41;99384.25;4990578;28;20198;-62
2023/07/15 07:21:33;;;;;;;4.10;2.90;;;;;;;29.97;45.46;99385.88;4995823;28;20313;-62
2023/07/15 07:23:58;;;;;;;7.15;2.65;;;;;;;30.75;43.73;99375.94;4997676;28;20510;-62
2023/07/15 07:26:24;;;;;;;3.63;2.55;;;;;;;31.62;41.21;99387.41;4992994;28;20286;-62
2023/07/15 07:28:49;;;;;;;4.22;2.90;;;;;;;31.66;40.71;99393.06;5006527;28;20226;-62
2023/07/15 07:31:16;;;;;;;5.93;3.20;;;;;;;33.00;37.50;99392.31;4991364;28;20220;-62
2023/07/15 07:33:42;;;;;;;4.15;2.70;;;;;;;33.45;35.51;99401.88;5019213;28;20665;-62
2023/07/15 07:36:07;;;;;;;3.78;2.50;;;;;;;32.81;36.23;99397.97;5012055;28;20175;-62
2023/07/15 07:38:32;;;;;;;5.95;2.70;;;;;;;31.30;39.41;99387.09;5003380;28;20203;-64
2023/07/15 07:41:04;;;;;;;5.65;2.70;;;;;;;30.23;42.68;99388.09;4992073;28;20226;-63
2023/07/15 07:43:30;;;;;;;7.95;2.90;;;;;;;29.54;46.10;99393.81;5006468;28;20642;-62
2023/07/15 07:45:55;;;;;;;7.13;2.53;;;;;;;29.69;45.20;99395.25;5012063;28;20182;-63
2023/07/15 07:48:20;;;;;;;6.80;2.40;;;;;;;29.72;44.79;99402.72;5011897;28;20269;-62
2023/07/15 07:50:46;;;;;;;7.75;2.55;;;;;;;30.13;45.25;99409.06;5008171;28;20351;-62
2023/07/15 07:53:11;;;;;;;7.35;2.75;;;;;;;30.34;45.96;99394.44;5010213;28;20179;-62
2023/07/15 07:55:36;;;;;;;6.03;2.90;;;;;;;29.73;47.75;99394.56;4999863;28;20179;-62
2023/07/15 07:58:01;;;;;;;7.45;2.92;;;;;;;28.88;51.13;99412.16;5012287;28;20202;-61
2023/07/15 08:00:27;;;;;;;7.18;3.00;;;;;;;28.57;52.61;99407.78;5003563;28;20226;-62
2023/07/15 08:02:52;;;;;;;9.45;3.60;;;;;;;28.55;53.53;99410.63;4997862;28;20195;-62
2023/07/15 08:05:18;;;;;;;9.18;2.88;;;;;;;27.49;61.66;99410.41;5011277;28;20183;-62
2023/07/15 08:07:43;;;;;;;7.80;3.47;;;;;;;27.66;59.69;99398.31;5011736;28;20491;-63
2023/07/15 08:10:09;;;;;;;8.20;3.20;;;;;;;27.65;61.31;99388.75;5002483;28;20225;-64
2023/07/15 08:12:34;;;;;;;8.65;3.08;;;;;;;28.12;56.99;99401.66;5025549;28;20294;-63
2023/07/15 08:14:59;;;;;;;6.95;3.00;;;;;;;29.77;49.15;99410.81;5011732;28;20641;-62
2023/07/15 08:17:25;;;;;;;6.20;3.00;;;;;;;31.39;42.54;99417.53;5011767;28;20214;-63
2023/07/15 08:19:50;;;;;;;9.32;2.80;;;;;;;32.25;40.95;99421.94;5011878;28;20175;-64
2023/07/15 08:22:15;;;;;;;6.10;3.47;;;;;;;33.79;37.84;99430.16;5016699;28;20323;-65
2023/07/15 08:24:40;;;;;;;6.28;2.85;;;;;;;34.85;34.77;99430.31;5009073;28;20182;-63
2023/07/15 08:27:06;;;;;;;4.50;2.92;;;;;;;35.69;33.55;99434.84;5012029;28;20179;-60
2023/07/15 08:29:31;;;;;;;5.63;2.85;;;;;;;34.37;34.56;99427.69;5011353;28;20639;-62
2023/07/15 08:31:56;;;;;;;7.35;2.58;;;;;;;33.22;36.79;99452.75;5016258;28;20684;-62
2023/07/15 08:34:21;;;;;;;5.50;2.40;;;;;;;32.92;37.02;99459.31;5011141;28;20187;-62
2023/07/15 08:36:47;;;;;;;5.78;2.65;;;;;;;32.05;39.23;99459.63;5010514;28;20256;-62
2023/07/15 08:39:12;;;;;;;10.32;3.03;;;;;;;31.51;41.65;99447.53;5002539;28;20215;-62
2023/07/15 08:41:39;;;;;;;7.75;2.67;;;;;;;31.31;42.25;99436.50;4995865;28;20627;-62
2023/07/15 08:44:04;;;;;;;7.50;2.65;;;;;;;31.17;42.76;99443.97;5001318;28;20280;-61
2023/07/15 08:46:31;;;;;;;5.32;2.72;;;;;;;30.99;43.93;99451.03;5007840;28;20190;-62
2023/07/15 08:48:59;;;;;;;5.55;2.80;;;;;;;30.95;43.17;99459.69;5007480;28;20194;-62
2023/07/15 08:51:29;;;;;;;5.97;2.80;;;;;;;30.96;43.89;99454.16;5004779;28;20242;-65
2023/07/15 08:53:56;;;;;;;7.65;3.20;;;;;;;30.56;44.45;99438.97;5003274;28;20261;-64
2023/07/15 08:56:23;;;;;;;4.13;2.70;;;;;;;30.50;45.59;99421.31;5003710;28;20203;-63
2023/07/15 08:58:49;;;;;;;6.32;3.67;;;;;;;30.08;47.55;99412.41;5007338;28;20217;-62
2023/07/15 09:01:14;;;;;;;6.75;3.47;;;;;;;29.41;50.04;99399.31;4999316;28;20251;-64
2023/07/15 09:03:39;;;;;;;9.20;3.15;;;;;;;28.77;53.87;99421.63;5005712;28;20549;-61
2023/07/15 09:06:05;;;;;;;14.80;3.88;;;;;;;28.37;55.89;99437.88;5010167;28;20178;-61
2023/07/15 09:08:30;;;;;;;12.90;3.72;;;;;;;28.22;61.03;99442.66;5009158;28;20194;-61
2023/07/15 09:10:57;;;;;;;8.95;3.40;;;;;;;28.20;61.53;99442.09;4990394;28;20238;-62
2023/07/15 09:13:32;;;;;;;6.70;3.10;;;;;;;27.99;58.56;99452.75;5004436;28;20222;-62
2023/07/15 09:15:58;;;;;;;6.70;3.33;;;;;;;27.75;61.45;99448.25;5000426;28;20210;-63
2023/07/15 09:18:24;;;;;;;8.60;2.70;;;;;;;27.88;63.52;99461.38;5012603;28;20658;-61
2023/07/15 09:20:50;;;;;;;8.95;3.70;;;;;;;28.41;63.05;99441.69;5003224;28;20313;-61
2023/07/15 09:23:16;;;;;;;7.43;3.15;;;;;;;28.37;61.92;99426.47;4993349;28;20203;-60
2023/07/15 09:26:09;;;;;;;5.30;3.55;;;;;;;27.69;70.23;99432.22;4993847;28;20222;-62
2023/07/15 09:28:38;;;;;;;6.93;2.95;;;;;;;27.35;69.98;99436.03;4994300;28;20219;-62
2023/07/15 09:31:04;;;;;;;6.82;2.75;;;;;;;27.33;72.42;99433.59;4984179;28;20305;-61
2023/07/15 09:33:33;;;;;;;10.57;2.97;;;;;;;26.90;75.05;99431.50;5007811;28;20726;-62
2023/07/15 09:36:02;;;;;;;14.80;3.05;;;;;;;26.99;82.44;99424.19;4993231;28;20194;-63
2023/07/15 09:38:32;;;;;;;9.82;3.20;;;;;;;27.20;80.76;99418.63;4994851;28;20321;-61
2023/07/15 09:41:01;;;;;;;7.13;2.80;;;;;;;27.28;80.26;99429.97;4991781;28;20233;-63
2023/07/15 09:43:49;;;;;;;7.28;2.92;;;;;;;27.02;87.69;99429.06;5005137;28;20195;-63
2023/07/15 09:46:17;;;;;;;4.53;3.03;;;;;;;26.73;91.03;99429.31;5011991;28;20286;-63
2023/07/15 09:48:50;;;;;;;9.73;3.17;;;;;;;26.42;91.24;99432.59;5008800;28;20375;-63
2023/07/15 09:51:16;;;;;;;8.60;3.22;;;;;;;26.24;91.13;99438.47;4996117;28;20234;-63
2023/07/15 09:53:48;;;;;;;5.10;3.40;;;;;;;26.47;91.83;99434.59;5007938;28;20262;-63
2023/07/15 09:56:16;;;;;;;4.15;2.70;;;;;;;26.89;95.23;99437.81;5007180;28;20184;-65
2023/07/15 09:58:46;;;;;;;7.30;2.90;;;;;;;27.18;92.19;99431.22;5007893;28;20187;-64
2023/07/15 10:01:17;;;;;;;6.88;3.10;;;;;;;27.22;94.16;99440.34;4990609;28;20223;-66
2023/07/15 10:03:48;;;;;;;4.03;2.72;;;;;;;27.36;91.95;99448.22;5003644;28;20236;-63
2023/07/15 10:06:14;;;;;;;5.90;3.08;;;;;;;27.43;89.92;99449.03;5013133;28;20194;-64
2023/07/15 10:08:40;;;;;;;5.38;2.63;;;;;;;27.57;91.57;99441.03;5012377;28;20561;-64
2023/07/15 10:11:06;;;;;;;7.10;2.53;;;;;;;27.57;87.36;99436.56;5002609;28;20229;-63
2023/07/15 10:13:32;;;;;;;10.82;3.08;;;;;;;27.50;86.99;99436.59;5006823;28;20195;-62
2023/07/15 10:15:59;;;;;;;4.65;2.80;;;;;;;27.51;84.83;99432.94;5004234;28;20191;-64
2023/07/15 10:18:31;;;;;;;4.93;3.15;;;;;;;27.25;84.93;99425.09;5001365;28;20261;-64
2023/07/15 10:21:00;;;;;;;6.50;2.95;;;;;;;27.40;85.27;99430.97;4986330;28;20238;-63
2023/07/15 10:23:27;;;;;;;3.70;2.95;;;;;;;27.88;84.69;99424.38;5002710;28;20195;-63
2023/07/15 10:26:08;;;;;;;8.98;3.65;;;;;;;27.54;80.65;99416.66;4996401;28;20198;-64
2023/07/15 10:28:41;;;;;;;4.25;2.70;;;;;;;27.87;81.49;99433.31;4998507;28;20694;-64
2023/07/15 10:31:09;;;;;;;4.35;2.88;;;;;;;28.62;77.26;99455.56;4992477;28;20222;-63
2023/07/15 10:33:57;;;;;;;4.97;2.90;;;;;;;29.69;72.71;99454.34;4992425;28;20253;-62
2023/07/15 10:36:47;;;;;;;6.93;3.05;;;;;;;29.92;65.84;99460.81;4992857;28;20195;-62
2023/07/15 10:39:20;;;;;;;4.72;3.58;;;;;;;29.79;64.12;99469.72;5001325;28;20667;-63
2023/07/15 10:41:51;;;;;;;6.22;3.65;;;;;;;29.92;64.95;99466.91;4986641;28;20595;-62
2023/07/15 10:44:21;;;;;;;15.05;4.53;;;;;;;29.76;62.74;99457.72;5007628;28;20244;-62
2023/07/15 10:46:50;;;;;;;3.15;2.70;;;;;;;29.92;62.49;99439.59;5000266;28;20651;-62
2023/07/15 10:49:15;;;;;;;6.43;2.67;;;;;;;29.41;65.13;99445.16;5008513;28;20183;-63
2023/07/15 10:51:41;;;;;;;5.38;2.90;;;;;;;29.73;68.25;99444.09;5007249;28;20226;-62
2023/07/15 10:54:07;;;;;;;7.03;2.78;;;;;;;29.86;69.56;99429.88;5006593;28;20195;-62
2023/07/15 10:56:32;;;;;;;4.35;2.80;;;;;;;29.61;71.06;99426.34;5004189;28;20214;-62
2023/07/15 10:58:57;;;;;;;9.13;3.33;;;;;;;28.94;74.30;99434.28;5007422;28;20195;-62
2023/07/15 11:01:23;;;;;;;9.50;3.55;;;;;;;28.73;77.48;99432.88;4992847;28;20226;-63
2023/07/15 11:03:48;;;;;;;8.32;3.30;;;;;;;28.37;88.82;99437.88;4999650;28;20200;-63
2023/07/15 11:06:14;;;;;;;13.70;3.35;;;;;;;28.09;91.08;99412.66;4993752;28;20176;-63
2023/07/15 11:08:40;;;;;;;3.97;2.97;;;;;;;27.83;94.14;99403.06;4994074;28;20228;-62
2023/07/15 11:11:07;;;;;;;8.60;3.70;;;;;;;27.66;97.51;99422.09;4991934;28;20230;-62
2023/07/15 11:13:38;;;;;;;7.57;3.58;;;;;;;27.31;94.07;99405.78;4992394;28;20175;-63
2023/07/15 11:16:04;;;;;;;3.90;2.85;;;;;;;27.61;92.57;99387.59;4986760;28;20803;-64
2023/07/15 11:21:51;;;;;;;8.85;3.33;;;;;;;28.49;93.29;99387.69;4985658;28;20293;-63
2023/07/15 11:24:18;;;;;;;10.77;3.72;;;;;;;28.43;90.68;99385.94;5007471;28;20682;-62
2023/07/15 11:26:44;;;;;;;9.82;3.85;;;;;;;28.36;90.33;99380.72;5011609;28;20186;-63
2023/07/15 11:29:18;;;;;;;8.15;3.47;;;;;;;28.07;90.13;99371.63;5009669;28;20239;-63